Time;durP1;ratioP1;P1;durP2;ratioP2;P2;SDS_P1;SDS_P2;PMS_P1;PMS_P2;Temp;Humidity;BMP_temperature;BMP_pressure;BME280_temperature;BME280_humidity;BME280_pressure;Samples;Min_cycle;Max_cycle;Signal;HPM_P1;HPM_P2
2022/04/08 04:25:47;;;;;;;71.93;9.65;;;;;;;;;;5393421;23;20050;-84
2022/04/08 04:28:15;;;;;;;70.90;8.85;;;;;;;;;;4965810;28;20055;-84
2022/04/08 04:30:41;;;;;;;68.13;9.70;;;;;;;;;;4965038;28;20078;-84
2022/04/08 04:33:08;;;;;;;70.53;9.57;;;;;;;;;;4970030;28;20656;-84
2022/04/08 04:35:35;;;;;;;87.13;10.38;;;;;;;;;;4954622;28;20078;-84
2022/04/08 04:38:02;;;;;;;75.03;9.88;;;;;;;;;;4968143;28;20088;-84
2022/04/08 04:40:29;;;;;;;71.53;9.00;;;;;;;;;;4967426;28;20515;-84
2022/04/08 04:42:58;;;;;;;58.33;8.50;;;;;;;;;;4968653;28;20179;-83
2022/04/08 04:45:24;;;;;;;62.80;8.55;;;;;;;;;;4954545;28;20079;-85
2022/04/08 04:47:51;;;;;;;51.90;7.72;;;;;;;;;;4970439;28;20074;-83
2022/04/08 04:50:18;;;;;;;56.17;8.57;;;;;;;;;;4968710;28;20070;-83
2022/04/08 04:52:44;;;;;;;54.47;8.38;;;;;;;;;;4969751;28;20082;-83
2022/04/08 04:55:11;;;;;;;77.30;8.00;;;;;;;;;;4954195;28;20077;-85
2022/04/08 04:57:39;;;;;;;43.88;8.35;;;;;;;;;;4970687;28;20579;-83
2022/04/08 05:00:09;;;;;;;49.00;7.07;;;;;;;;;;4971020;28;20093;-82
2022/04/08 05:02:36;;;;;;;51.40;6.90;;;;;;;;;;4969197;28;20467;-84
2022/04/08 05:05:04;;;;;;;42.05;6.25;;;;;;;;;;4971175;28;20042;-83
2022/04/08 05:07:30;;;;;;;36.50;6.18;;;;;;;;;;4953423;28;20174;-84
2022/04/08 05:09:57;;;;;;;41.25;5.57;;;;;;;;;;4969127;28;20106;-84
2022/04/08 05:12:23;;;;;;;40.78;6.75;;;;;;;;;;4953574;28;20113;-84
2022/04/08 05:14:50;;;;;;;53.95;5.88;;;;;;;;;;4970571;28;20523;-84
2022/04/08 05:17:16;;;;;;;52.35;6.90;;;;;;;;;;4969425;28;20073;-83
2022/04/08 05:19:43;;;;;;;55.70;7.35;;;;;;;;;;4969857;28;20133;-84
2022/04/08 05:22:13;;;;;;;55.05;7.50;;;;;;;;;;4969021;28;20126;-83
2022/04/08 05:24:39;;;;;;;64.55;7.38;;;;;;;;;;4970106;28;20113;-85
2022/04/08 05:27:06;;;;;;;57.58;7.63;;;;;;;;;;4953894;28;20130;-84
2022/04/08 05:29:33;;;;;;;62.50;8.10;;;;;;;;;;4968608;28;20085;-84
2022/04/08 05:31:59;;;;;;;52.35;7.53;;;;;;;;;;4952588;28;20082;-85
2022/04/08 05:34:27;;;;;;;69.50;8.23;;;;;;;;;;4966437;28;20541;-85
2022/04/08 05:36:54;;;;;;;74.70;9.18;;;;;;;;;;4968204;28;20043;-85
2022/04/08 05:39:20;;;;;;;71.10;9.18;;;;;;;;;;4953100;28;20144;-85
2022/04/08 05:41:47;;;;;;;58.67;7.47;;;;;;;;;;4969617;28;20047;-85
2022/04/08 05:44:14;;;;;;;76.40;8.18;;;;;;;;;;4968851;28;20054;-85
2022/04/08 05:46:40;;;;;;;51.70;6.18;;;;;;;;;;4968106;28;20043;-84
2022/04/08 05:49:07;;;;;;;50.17;6.50;;;;;;;;;;4953326;28;20492;-85
2022/04/08 05:51:33;;;;;;;61.58;7.28;;;;;;;;;;4969581;28;20142;-84
2022/04/08 05:54:07;;;;;;;41.75;4.90;;;;;;;;;;4971074;28;20043;-85
2022/04/08 05:56:33;;;;;;;49.40;5.88;;;;;;;;;;4968680;28;20075;-85
2022/04/08 05:59:00;;;;;;;59.72;6.05;;;;;;;;;;4967853;28;20519;-85
2022/04/08 06:01:26;;;;;;;69.35;8.23;;;;;;;;;;4967766;28;20070;-83
2022/04/08 06:03:54;;;;;;;67.03;6.20;;;;;;;;;;4968736;28;20511;-83
2022/04/08 06:06:21;;;;;;;49.13;5.90;;;;;;;;;;4970414;28;20113;-83
2022/04/08 06:08:48;;;;;;;53.97;5.38;;;;;;;;;;4969207;28;20101;-83
2022/04/08 06:11:14;;;;;;;51.05;5.38;;;;;;;;;;4967635;28;20140;-82
2022/04/08 06:13:41;;;;;;;61.83;5.55;;;;;;;;;;4955568;28;20077;-83
2022/04/08 06:16:07;;;;;;;45.33;5.13;;;;;;;;;;4971413;28;20070;-83
2022/04/08 06:18:35;;;;;;;51.75;5.55;;;;;;;;;;4972905;28;20070;-83
2022/04/08 06:21:03;;;;;;;53.33;6.03;;;;;;;;;;4974018;28;20130;-84
2022/04/08 06:23:31;;;;;;;49.55;5.55;;;;;;;;;;4972136;28;20070;-84
2022/04/08 06:25:57;;;;;;;51.10;5.95;;;;;;;;;;4971339;28;20518;-84
2022/04/08 06:28:24;;;;;;;38.95;4.28;;;;;;;;;;4957050;28;20073;-85
2022/04/08 06:30:50;;;;;;;39.55;4.80;;;;;;;;;;4971916;28;20085;-86
2022/04/08 06:33:17;;;;;;;47.20;6.13;;;;;;;;;;4969739;28;20561;-86
2022/04/08 06:35:43;;;;;;;70.75;7.43;;;;;;;;;;4969889;28;20050;-87
2022/04/08 06:38:10;;;;;;;65.15;8.18;;;;;;;;;;4968456;28;20047;-84
2022/04/08 06:40:40;;;;;;;58.20;7.75;;;;;;;;;;4968170;28;20071;-86
2022/04/08 06:43:08;;;;;;;72.60;7.93;;;;;;;;;;4967212;28;20039;-86
2022/04/08 06:45:35;;;;;;;77.38;9.25;;;;;;;;;;4970580;28;20054;-86
2022/04/08 06:48:02;;;;;;;81.60;8.40;;;;;;;;;;4970256;28;20537;-86
2022/04/08 06:50:29;;;;;;;64.68;8.75;;;;;;;;;;4966613;28;20074;-85
2022/04/08 06:52:59;;;;;;;73.63;9.10;;;;;;;;;;4965763;28;20085;-85
2022/04/08 06:55:30;;;;;;;72.03;9.38;;;;;;;;;;4965921;28;20065;-84
2022/04/08 06:58:03;;;;;;;67.63;9.15;;;;;;;;;;4966600;28;20566;-84
2022/04/08 07:00:32;;;;;;;73.15;9.23;;;;;;;;;;4967144;28;20054;-84
2022/04/08 07:02:58;;;;;;;73.65;8.82;;;;;;;;;;4968586;28;20534;-85
2022/04/08 07:05:26;;;;;;;67.95;8.52;;;;;;;;;;4965770;28;20341;-84
2022/04/08 07:07:52;;;;;;;80.82;9.75;;;;;;;;;;4966413;28;20137;-84
2022/04/08 07:10:19;;;;;;;71.20;9.55;;;;;;;;;;4965042;28;20284;-84
2022/04/08 07:12:45;;;;;;;74.07;10.05;;;;;;;;;;4967645;28;20054;-84
2022/04/08 07:15:12;;;;;;;74.88;9.18;;;;;;;;;;4969944;28;20613;-86
2022/04/08 07:17:39;;;;;;;83.95;10.35;;;;;;;;;;4966112;28;20051;-84
2022/04/08 07:20:14;;;;;;;83.47;9.73;;;;;;;;;;4964764;28;20157;-85
2022/04/08 07:22:43;;;;;;;89.13;10.65;;;;;;;;;;4967306;28;20043;-84
2022/04/08 07:25:11;;;;;;;87.50;11.55;;;;;;;;;;4964346;28;20507;-84
2022/04/08 07:27:48;;;;;;;91.82;10.55;;;;;;;;;;4966281;28;20496;-84
2022/04/08 07:30:17;;;;;;;87.03;12.18;;;;;;;;;;4967493;28;20133;-84
2022/04/08 07:32:46;;;;;;;94.57;12.23;;;;;;;;;;4968332;28;20426;-84
2022/04/08 07:35:12;;;;;;;109.88;12.82;;;;;;;;;;4963720;28;20586;-85
2022/04/08 07:37:39;;;;;;;96.78;12.40;;;;;;;;;;4964221;28;20126;-84
2022/04/08 07:40:07;;;;;;;103.93;12.80;;;;;;;;;;4950413;28;20495;-85
2022/04/08 07:42:34;;;;;;;106.28;13.40;;;;;;;;;;4966078;28;20075;-84
2022/04/08 07:45:01;;;;;;;91.13;11.50;;;;;;;;;;4968413;28;20130;-86
2022/04/08 07:47:28;;;;;;;105.40;12.13;;;;;;;;;;4964921;28;20050;-86
2022/04/08 07:49:57;;;;;;;87.45;13.27;;;;;;;;;;4965379;28;20047;-85
2022/04/08 07:52:25;;;;;;;95.22;12.13;;;;;;;;;;4967429;28;20130;-87
2022/04/08 07:54:53;;;;;;;94.75;13.35;;;;;;;;;;4963979;28;20103;-86
2022/04/08 07:57:19;;;;;;;81.53;11.10;;;;;;;;;;4967200;28;20086;-89
2022/04/08 07:59:47;;;;;;;95.32;12.27;;;;;;;;;;4949546;28;20058;-87
2022/04/08 08:02:19;;;;;;;71.05;9.65;;;;;;;;;;4955625;28;20047;-89
2022/04/08 08:04:53;;;;;;;81.10;9.15;;;;;;;;;;4966551;28;20410;-88
2022/04/08 08:07:19;;;;;;;67.07;8.95;;;;;;;;;;4964555;28;20047;-89
2022/04/08 08:09:47;;;;;;;96.78;11.57;;;;;;;;;;4950133;28;20051;-87
2022/04/08 08:12:21;;;;;;;99.25;12.20;;;;;;;;;;4966927;28;20121;-87
2022/04/08 08:14:47;;;;;;;98.13;12.23;;;;;;;;;;4965138;28;20125;-86
2022/04/08 08:17:14;;;;;;;94.50;12.52;;;;;;;;;;4946039;28;20364;-88
2022/04/08 08:19:41;;;;;;;105.47;13.98;;;;;;;;;;4947789;28;20046;-88
2022/04/08 08:22:07;;;;;;;104.85;12.93;;;;;;;;;;4963927;28;20110;-85
2022/04/08 08:24:34;;;;;;;110.72;13.70;;;;;;;;;;4964501;28;20058;-85
2022/04/08 08:27:01;;;;;;;100.47;13.45;;;;;;;;;;4968078;28;20054;-86
2022/04/08 08:29:27;;;;;;;87.50;11.95;;;;;;;;;;4962476;28;20471;-87
2022/04/08 08:31:54;;;;;;;100.78;13.80;;;;;;;;;;4965052;28;20548;-87
2022/04/08 08:34:21;;;;;;;97.40;13.40;;;;;;;;;;4964162;28;20047;-84
2022/04/08 08:36:48;;;;;;;103.78;14.20;;;;;;;;;;4965007;28;20066;-86
2022/04/08 08:39:15;;;;;;;106.50;13.85;;;;;;;;;;4967606;28;20061;-86
2022/04/08 08:41:42;;;;;;;101.90;12.80;;;;;;;;;;4952700;28;20069;-86
2022/04/08 08:44:10;;;;;;;110.65;14.35;;;;;;;;;;4964495;28;20523;-86
2022/04/08 08:46:36;;;;;;;102.05;13.63;;;;;;;;;;4962982;28;20502;-88
2022/04/08 08:49:04;;;;;;;106.90;12.88;;;;;;;;;;4966513;28;20045;-85
2022/04/08 08:51:36;;;;;;;91.47;12.40;;;;;;;;;;4966091;28;20057;-87
2022/04/08 08:54:02;;;;;;;89.72;11.70;;;;;;;;;;4967565;28;20542;-89
2022/04/08 08:56:29;;;;;;;81.68;12.15;;;;;;;;;;4966362;28;20530;-87
2022/04/08 08:58:56;;;;;;;76.32;10.18;;;;;;;;;;4964628;28;20046;-87
2022/04/08 09:01:22;;;;;;;86.88;12.05;;;;;;;;;;4949635;28;20043;-86
2022/04/08 09:03:49;;;;;;;88.32;11.15;;;;;;;;;;4964634;28;20039;-89
2022/04/08 09:06:17;;;;;;;82.32;11.43;;;;;;;;;;4970558;28;20054;-90
2022/04/08 09:08:55;;;;;;;99.70;11.55;;;;;;;;;;4965920;28;20137;-89
2022/04/08 09:11:27;;;;;;;105.07;14.82;;;;;;;;;;4953252;28;20479;-93
2022/04/08 09:14:01;;;;;;;97.32;12.27;;;;;;;;;;4950840;28;20499;-89
2022/04/08 09:16:29;;;;;;;109.90;13.18;;;;;;;;;;4965308;28;20125;-89
2022/04/08 09:18:56;;;;;;;103.13;12.25;;;;;;;;;;4964005;28;20069;-89
2022/04/08 09:21:24;;;;;;;92.88;10.40;;;;;;;;;;4967504;28;20185;-90
2022/04/08 09:23:52;;;;;;;65.82;8.60;;;;;;;;;;4970686;28;20086;-90
2022/04/08 09:26:19;;;;;;;54.65;8.52;;;;;;;;;;4964880;28;20518;-90
2022/04/08 09:28:47;;;;;;;62.78;8.15;;;;;;;;;;4965320;28;20537;-88
2022/04/08 09:31:19;;;;;;;75.97;9.07;;;;;;;;;;4963389;28;20113;-89
2022/04/08 09:33:50;;;;;;;89.10;11.25;;;;;;;;;;4936104;28;20055;-87
2022/04/08 09:36:31;;;;;;;99.80;12.77;;;;;;;;;;4966843;28;20106;-89
2022/04/08 09:38:59;;;;;;;117.18;12.75;;;;;;;;;;4963813;28;20070;-91
2022/04/08 09:41:39;;;;;;;98.50;12.77;;;;;;;;;;4966380;28;20070;-89
2022/04/08 09:44:11;;;;;;;99.93;11.88;;;;;;;;;;4964040;28;20156;-92
2022/04/08 09:46:39;;;;;;;112.45;14.43;;;;;;;;;;4949952;28;20129;-91
2022/04/08 09:49:06;;;;;;;92.73;11.93;;;;;;;;;;4949423;28;20050;-90
2022/04/08 09:51:36;;;;;;;99.78;14.45;;;;;;;;;;4966145;28;20117;-90
2022/04/08 09:54:14;;;;;;;112.68;15.60;;;;;;;;;;4951822;28;20142;-90
2022/04/08 09:56:43;;;;;;;112.13;14.77;;;;;;;;;;4963723;28;20442;-88
2022/04/08 09:59:21;;;;;;;111.05;14.15;;;;;;;;;;4965101;28;20070;-89
2022/04/08 10:02:08;;;;;;;94.40;12.30;;;;;;;;;;4951346;28;20049;-88
2022/04/08 10:04:36;;;;;;;108.85;13.25;;;;;;;;;;4968525;28;20051;-89
2022/04/08 10:07:03;;;;;;;90.93;12.13;;;;;;;;;;4968944;28;20133;-89
2022/04/08 10:09:34;;;;;;;73.85;11.90;;;;;;;;;;4968924;28;20120;-90
2022/04/08 10:12:07;;;;;;;84.28;11.45;;;;;;;;;;4971441;28;20078;-90
2022/04/08 10:14:45;;;;;;;81.60;10.80;;;;;;;;;;4953465;28;20050;-91
2022/04/08 10:17:12;;;;;;;78.47;11.65;;;;;;;;;;4967538;28;20047;-90
2022/04/08 10:19:39;;;;;;;83.07;9.20;;;;;;;;;;4968055;28;20137;-90
2022/04/08 10:22:18;;;;;;;77.30;9.98;;;;;;;;;;4954773;28;20138;-90
2022/04/08 10:24:55;;;;;;;78.97;10.77;;;;;;;;;;4952706;28;20085;-92
2022/04/08 10:27:37;;;;;;;79.00;10.68;;;;;;;;;;4969384;28;20098;-92
2022/04/08 10:30:32;;;;;;;79.63;10.93;;;;;;;;;;4967941;28;20534;-90
2022/04/08 10:33:00;;;;;;;76.18;10.18;;;;;;;;;;4967621;28;20491;-90
2022/04/08 10:35:27;;;;;;;64.13;9.80;;;;;;;;;;4969093;28;20534;-93
2022/04/08 10:38:01;;;;;;;74.03;9.90;;;;;;;;;;4953751;28;20074;-89
2022/04/08 10:40:32;;;;;;;78.43;10.77;;;;;;;;;;4963131;28;20153;-89
2022/04/08 10:43:01;;;;;;;53.95;8.20;;;;;;;;;;4966613;28;20484;-90
2022/04/08 10:45:29;;;;;;;88.75;9.32;;;;;;;;;;4966685;28;20059;-89
2022/04/08 10:48:08;;;;;;;81.30;11.83;;;;;;;;;;4969866;28;20058;-90
2022/04/08 10:50:35;;;;;;;80.70;10.23;;;;;;;;;;4954259;28;20085;-88
2022/04/08 10:53:19;;;;;;;85.05;10.60;;;;;;;;;;4953879;28;20085;-90
2022/04/08 10:55:53;;;;;;;87.00;11.23;;;;;;;;;;4952708;28;20086;-87
2022/04/08 10:58:31;;;;;;;78.22;10.77;;;;;;;;;;4969597;28;20047;-90
2022/04/08 11:00:57;;;;;;;78.15;9.77;;;;;;;;;;4971087;28;20460;-91
2022/04/08 11:03:28;;;;;;;77.38;11.18;;;;;;;;;;4955392;28;20054;-88
2022/04/08 11:05:55;;;;;;;76.68;10.55;;;;;;;;;;4971496;28;20122;-87
2022/04/08 11:08:24;;;;;;;81.18;10.73;;;;;;;;;;4953070;28;20051;-88
2022/04/08 11:11:00;;;;;;;;;;;;;;;;;;4973065;28;20077;-88
2022/04/08 11:13:27;;;;;;;59.47;8.45;;;;;;;;;;4969936;28;19925;-87
2022/04/08 11:15:59;;;;;;;57.08;8.43;;;;;;;;;;4970729;28;20051;-89
2022/04/08 11:18:26;;;;;;;57.85;7.18;;;;;;;;;;4972227;28;20143;-88
2022/04/08 11:20:53;;;;;;;64.47;9.07;;;;;;;;;;4971391;28;20125;-88
2022/04/08 11:23:27;;;;;;;59.03;7.88;;;;;;;;;;4971108;28;20074;-89
2022/04/08 11:25:54;;;;;;;47.60;7.00;;;;;;;;;;4971190;28;20554;-93
2022/04/08 11:28:22;;;;;;;3.22;0.60;;;;;;;;;;4973071;28;20043;-93
2022/04/08 11:30:57;;;;;;;2.33;0.30;;;;;;;;;;4971495;28;20074;-91
2022/04/08 11:33:25;;;;;;;1.92;0.10;;;;;;;;;;4957028;28;20130;-92
2022/04/08 11:36:02;;;;;;;2.08;0.17;;;;;;;;;;4968446;28;20152;-91
2022/04/08 11:38:30;;;;;;;0.22;0.10;;;;;;;;;;4956566;28;20047;-93
2022/04/08 11:41:19;;;;;;;0.90;0.10;;;;;;;;;;4972764;28;20126;-93
2022/04/08 11:43:46;;;;;;;1.23;0.43;;;;;;;;;;4970934;28;20057;-92
2022/04/08 11:46:15;;;;;;;1.20;0.20;;;;;;;;;;4972246;28;20070;-92
2022/04/08 11:48:46;;;;;;;0.60;0.20;;;;;;;;;;4940008;28;20189;-91
2022/04/08 11:51:16;;;;;;;3.33;0.63;;;;;;;;;;4957021;28;20522;-92
2022/04/08 11:54:02;;;;;;;0.98;0.45;;;;;;;;;;4955901;28;20586;-94
2022/04/08 11:56:30;;;;;;;2.85;0.30;;;;;;;;;;4954092;28;20146;-92
2022/04/08 11:59:01;;;;;;;2.28;0.30;;;;;;;;;;4968921;28;20090;-92
2022/04/08 12:01:32;;;;;;;1.48;0.25;;;;;;;;;;4968754;28;20051;-91
2022/04/08 12:04:12;;;;;;;2.30;0.35;;;;;;;;;;4959227;28;20204;-91
2022/04/08 12:06:43;;;;;;;2.55;0.50;;;;;;;;;;4958194;28;20575;-93
2022/04/08 12:09:11;;;;;;;1.98;0.40;;;;;;;;;;4968157;28;20135;-91
2022/04/08 12:11:40;;;;;;;1.38;0.25;;;;;;;;;;4965470;28;20158;-91
2022/04/08 12:14:14;;;;;;;1.42;0.35;;;;;;;;;;4956134;28;20043;-94
2022/04/08 12:16:45;;;;;;;1.30;0.30;;;;;;;;;;4956312;28;20082;-89
2022/04/08 12:19:12;;;;;;;2.95;0.40;;;;;;;;;;4952318;28;20078;-88
2022/04/08 12:21:59;;;;;;;1.05;0.35;;;;;;;;;;4965781;28;20051;-89
2022/04/08 12:24:28;;;;;;;0.80;0.20;;;;;;;;;;4956430;28;20058;-89
2022/04/08 12:26:54;;;;;;;2.78;0.52;;;;;;;;;;4970434;28;20427;-88
2022/04/08 12:29:27;;;;;;;2.08;0.63;;;;;;;;;;4966122;28;20047;-89
2022/04/08 12:31:57;;;;;;;2.03;0.30;;;;;;;;;;4966722;28;20043;-87
2022/04/08 12:34:24;;;;;;;1.77;0.45;;;;;;;;;;4966568;28;20051;-87
2022/04/08 12:36:53;;;;;;;2.55;0.40;;;;;;;;;;4965190;28;20082;-87
2022/04/08 12:39:19;;;;;;;0.70;0.30;;;;;;;;;;4965796;28;20409;-87
2022/04/08 12:41:47;;;;;;;2.65;0.68;;;;;;;;;;4967421;28;20587;-88
2022/04/08 12:44:15;;;;;;;1.50;0.40;;;;;;;;;;4967531;28;20050;-88
2022/04/08 12:46:42;;;;;;;1.10;0.30;;;;;;;;;;4968971;28;20050;-88
2022/04/08 12:49:14;;;;;;;2.63;0.40;;;;;;;;;;4960647;28;20077;-90
2022/04/08 12:51:41;;;;;;;4.85;0.50;;;;;;;;;;4963438;28;20541;-91
2022/04/08 12:54:08;;;;;;;2.60;0.25;;;;;;;;;;4973377;28;20047;-89
2022/04/08 12:56:34;;;;;;;1.75;0.68;;;;;;;;;;4962052;28;20172;-92
2022/04/08 12:59:01;;;;;;;2.72;0.60;;;;;;;;;;4969701;28;20145;-88
2022/04/08 13:01:28;;;;;;;4.05;0.50;;;;;;;;;;4970301;28;20474;-90
2022/04/08 13:03:55;;;;;;;1.42;0.30;;;;;;;;;;4963217;28;20511;-90
2022/04/08 13:06:27;;;;;;;3.10;0.63;;;;;;;;;;4952514;28;20055;-88
2022/04/08 13:08:54;;;;;;;10.40;1.05;;;;;;;;;;4970754;28;20090;-89
2022/04/08 13:11:21;;;;;;;3.65;0.52;;;;;;;;;;4970708;28;20074;-88
2022/04/08 13:13:48;;;;;;;3.33;0.40;;;;;;;;;;4969144;28;20047;-91
2022/04/08 13:16:15;;;;;;;3.33;0.65;;;;;;;;;;4957870;28;20130;-91
2022/04/08 13:18:42;;;;;;;2.55;0.22;;;;;;;;;;4953357;28;20109;-90
2022/04/08 13:21:08;;;;;;;1.80;0.30;;;;;;;;;;4969831;28;20071;-91
2022/04/08 13:23:35;;;;;;;1.88;0.32;;;;;;;;;;4955046;28;20047;-89
2022/04/08 13:26:02;;;;;;;3.50;0.52;;;;;;;;;;4970415;28;20074;-88
2022/04/08 13:28:28;;;;;;;3.15;0.50;;;;;;;;;;4950739;28;20043;-88
2022/04/08 13:30:55;;;;;;;3.03;0.30;;;;;;;;;;4955942;28;20125;-88
2022/04/08 13:33:21;;;;;;;4.82;0.50;;;;;;;;;;4954267;28;20523;-90
2022/04/08 13:35:52;;;;;;;3.33;0.70;;;;;;;;;;4969323;28;20106;-91
2022/04/08 13:38:21;;;;;;;4.30;0.40;;;;;;;;;;4951993;28;20077;-88
2022/04/08 13:40:48;;;;;;;3.47;0.60;;;;;;;;;;4968688;28;20062;-89
2022/04/08 13:43:15;;;;;;;2.58;0.52;;;;;;;;;;4967902;28;20070;-89
2022/04/08 13:45:42;;;;;;;4.40;0.50;;;;;;;;;;4968191;28;20134;-89
2022/04/08 13:48:08;;;;;;;5.05;0.60;;;;;;;;;;4970809;28;20456;-89
2022/04/08 13:50:35;;;;;;;3.65;0.68;;;;;;;;;;4969266;28;20070;-88
2022/04/08 13:53:02;;;;;;;2.97;0.47;;;;;;;;;;4953035;28;20134;-90
2022/04/08 13:55:28;;;;;;;3.58;0.77;;;;;;;;;;4969475;28;20054;-91
2022/04/08 13:57:55;;;;;;;8.95;0.75;;;;;;;;;;4968763;28;20071;-90
2022/04/08 14:00:22;;;;;;;4.28;0.77;;;;;;;;;;4953212;28;20043;-88
2022/04/08 14:02:49;;;;;;;2.67;0.40;;;;;;;;;;4945301;28;20083;-87
2022/04/08 14:05:16;;;;;;;3.88;0.70;;;;;;;;;;4962106;28;20050;-88
2022/04/08 14:07:43;;;;;;;3.60;0.75;;;;;;;;;;4965882;28;20142;-87
2022/04/08 14:10:10;;;;;;;1.63;0.30;;;;;;;;;;4952081;28;20105;-88
2022/04/08 14:12:37;;;;;;;4.97;0.73;;;;;;;;;;4969133;28;20138;-87
2022/04/08 14:15:04;;;;;;;2.95;0.70;;;;;;;;;;4970034;28;20614;-88
2022/04/08 14:17:51;;;;;;;3.25;1.15;;;;;;;;;;4955638;28;20061;-89
2022/04/08 14:20:18;;;;;;;3.40;0.85;;;;;;;;;;4968318;28;20089;-88
2022/04/08 14:22:44;;;;;;;3.10;0.68;;;;;;;;;;4954008;28;20078;-88
2022/04/08 14:25:11;;;;;;;2.30;0.57;;;;;;;;;;4966749;28;20063;-87
2022/04/08 14:27:59;;;;;;;2.80;0.50;;;;;;;;;;4941436;28;20118;-90
2022/04/08 14:30:25;;;;;;;2.90;0.50;;;;;;;;;;4969579;28;20054;-88
2022/04/08 14:32:53;;;;;;;3.65;0.73;;;;;;;;;;4953325;28;20526;-89
2022/04/08 14:35:19;;;;;;;3.00;0.60;;;;;;;;;;4957163;28;20097;-89
2022/04/08 14:37:46;;;;;;;3.95;0.45;;;;;;;;;;4957449;28;20101;-89
2022/04/08 14:40:13;;;;;;;2.22;0.70;;;;;;;;;;4972873;28;20571;-89
2022/04/08 14:42:40;;;;;;;4.75;1.38;;;;;;;;;;4955550;28;20482;-89
2022/04/08 14:45:07;;;;;;;5.85;0.80;;;;;;;;;;4956378;28;20077;-87
2022/04/08 14:47:35;;;;;;;4.57;0.55;;;;;;;;;;4973384;28;20070;-89
2022/04/08 14:50:02;;;;;;;1.48;0.60;;;;;;;;;;4977061;28;20098;-89
2022/04/08 14:52:31;;;;;;;3.03;0.73;;;;;;;;;;4953740;28;20579;-83
2022/04/08 14:54:57;;;;;;;1.85;0.63;;;;;;;;;;4970988;28;20511;-88
2022/04/08 14:57:24;;;;;;;2.22;0.60;;;;;;;;;;4955844;28;20138;-87
2022/04/08 14:59:51;;;;;;;4.32;0.75;;;;;;;;;;4972028;28;20055;-87
2022/04/08 15:02:17;;;;;;;3.95;0.70;;;;;;;;;;4971929;28;20066;-88
2022/04/08 15:04:44;;;;;;;3.33;0.73;;;;;;;;;;4973556;28;20046;-88
2022/04/08 15:07:12;;;;;;;5.15;0.88;;;;;;;;;;4972314;28;20527;-89
2022/04/08 15:09:39;;;;;;;4.82;0.80;;;;;;;;;;4973707;28;20515;-87
2022/04/08 15:12:06;;;;;;;5.18;1.23;;;;;;;;;;4948427;28;20077;-88
2022/04/08 15:14:33;;;;;;;6.40;0.90;;;;;;;;;;4971189;28;20071;-90
2022/04/08 15:16:59;;;;;;;7.28;0.80;;;;;;;;;;4960892;28;20124;-89
2022/04/08 15:19:26;;;;;;;5.70;0.50;;;;;;;;;;4970571;28;20603;-90
2022/04/08 15:21:53;;;;;;;3.50;0.75;;;;;;;;;;4959687;28;20054;-91
2022/04/08 15:24:20;;;;;;;4.90;0.70;;;;;;;;;;4964745;28;20400;-87
2022/04/08 15:26:47;;;;;;;4.28;0.75;;;;;;;;;;4970491;28;20435;-89
2022/04/08 15:29:14;;;;;;;6.05;0.70;;;;;;;;;;4968821;28;20136;-89
2022/04/08 15:31:47;;;;;;;3.10;0.70;;;;;;;;;;4965850;28;20101;-89
2022/04/08 15:34:15;;;;;;;7.55;0.80;;;;;;;;;;4971144;28;20059;-89
2022/04/08 15:36:42;;;;;;;5.28;1.00;;;;;;;;;;4960855;28;20145;-86
2022/04/08 15:39:09;;;;;;;9.35;1.27;;;;;;;;;;4959348;28;20586;-88
2022/04/08 15:41:41;;;;;;;6.45;1.65;;;;;;;;;;4971064;28;20070;-87
2022/04/08 15:44:08;;;;;;;8.27;0.98;;;;;;;;;;4970262;28;20101;-90
2022/04/08 15:46:35;;;;;;;5.53;2.65;;;;;;;;;;4961509;28;20051;-89
2022/04/08 15:49:03;;;;;;;8.45;1.20;;;;;;;;;;4970834;28;20049;-88
2022/04/08 15:51:32;;;;;;;1.80;0.50;;;;;;;;;;4970291;28;20058;-86
2022/04/08 15:54:03;;;;;;;4.25;0.60;;;;;;;;;;4968996;28;20046;-87
2022/04/08 15:56:30;;;;;;;5.28;0.82;;;;;;;;;;4968497;28;20054;-87
2022/04/08 15:58:57;;;;;;;4.80;0.98;;;;;;;;;;4967969;28;20154;-87
2022/04/08 16:01:24;;;;;;;11.40;1.25;;;;;;;;;;4973454;28;20078;-86
2022/04/08 16:03:50;;;;;;;7.43;1.45;;;;;;;;;;4952080;28;20051;-86
2022/04/08 16:06:17;;;;;;;7.40;1.48;;;;;;;;;;4969772;28;20142;-85
2022/04/08 16:08:49;;;;;;;10.02;1.40;;;;;;;;;;4956931;28;20046;-85
2022/04/08 16:11:18;;;;;;;7.63;1.15;;;;;;;;;;4968492;28;20142;-85
2022/04/08 16:13:46;;;;;;;6.47;1.45;;;;;;;;;;4967671;28;20113;-86
2022/04/08 16:16:13;;;;;;;4.50;1.38;;;;;;;;;;4975936;28;20576;-86
2022/04/08 16:18:49;;;;;;;11.50;2.60;;;;;;;;;;4945610;28;20483;-85
2022/04/08 16:21:18;;;;;;;6.18;1.73;;;;;;;;;;4970757;28;20062;-84
2022/04/08 16:23:45;;;;;;;5.95;1.50;;;;;;;;;;4969350;28;20061;-86
2022/04/08 16:26:12;;;;;;;8.30;1.10;;;;;;;;;;4968593;28;20543;-85
2022/04/08 16:28:38;;;;;;;7.50;1.25;;;;;;;;;;4968169;28;20153;-85
2022/04/08 16:31:06;;;;;;;3.97;1.20;;;;;;;;;;4968602;28;20130;-87
2022/04/08 16:33:32;;;;;;;8.07;1.50;;;;;;;;;;4951382;28;20471;-85
2022/04/08 16:35:59;;;;;;;6.65;1.73;;;;;;;;;;4971650;28;20043;-87
2022/04/08 16:38:26;;;;;;;7.30;1.17;;;;;;;;;;4967714;28;20051;-87
2022/04/08 16:40:53;;;;;;;5.57;1.25;;;;;;;;;;4967949;28;20486;-85
2022/04/08 16:43:19;;;;;;;5.15;1.15;;;;;;;;;;4969941;28;20141;-86
2022/04/08 16:45:46;;;;;;;5.63;1.27;;;;;;;;;;4969131;28;20117;-87
2022/04/08 16:48:13;;;;;;;5.15;1.63;;;;;;;;;;4968623;28;20057;-87
2022/04/08 16:50:39;;;;;;;7.00;1.30;;;;;;;;;;4968903;28;20078;-87
2022/04/08 16:53:07;;;;;;;13.25;1.60;;;;;;;;;;4958903;28;20078;-86
2022/04/08 16:55:36;;;;;;;5.50;1.42;;;;;;;;;;4967760;28;20054;-87
2022/04/08 16:58:03;;;;;;;8.43;1.65;;;;;;;;;;4967836;28;20082;-85
2022/04/08 17:00:31;;;;;;;9.52;1.38;;;;;;;;;;4955269;28;20085;-86
2022/04/08 17:02:58;;;;;;;4.40;1.20;;;;;;;;;;4972560;28;20046;-85
2022/04/08 17:05:25;;;;;;;5.85;1.63;;;;;;;;;;4968145;28;20070;-85
2022/04/08 17:07:52;;;;;;;7.80;1.83;;;;;;;;;;4967984;28;20134;-86
2022/04/08 17:10:21;;;;;;;4.50;1.58;;;;;;;;;;4967856;28;20050;-87
2022/04/08 17:12:48;;;;;;;5.57;1.67;;;;;;;;;;4962276;28;20157;-88
2022/04/08 17:15:15;;;;;;;6.97;1.40;;;;;;;;;;4971998;28;20146;-87
2022/04/08 17:17:42;;;;;;;5.68;1.35;;;;;;;;;;4968812;28;20074;-85
2022/04/08 17:20:11;;;;;;;8.07;1.30;;;;;;;;;;4972127;28;20138;-87
2022/04/08 17:22:39;;;;;;;7.20;1.05;;;;;;;;;;4965972;28;20050;-85
2022/04/08 17:25:06;;;;;;;10.23;3.10;;;;;;;;;;4971185;28;20496;-85
2022/04/08 17:27:33;;;;;;;14.70;4.55;;;;;;;;;;4970941;28;20133;-84
2022/04/08 17:29:59;;;;;;;10.90;1.73;;;;;;;;;;4969620;28;20046;-84
2022/04/08 17:32:29;;;;;;;18.15;5.75;;;;;;;;;;4967236;28;20224;-85
2022/04/08 17:35:05;;;;;;;14.98;2.28;;;;;;;;;;4968717;28;20043;-86
2022/04/08 17:37:33;;;;;;;10.30;5.28;;;;;;;;;;4969512;28;20082;-87
2022/04/08 17:40:03;;;;;;;11.32;2.42;;;;;;;;;;4975681;28;20458;-87
2022/04/08 17:42:35;;;;;;;12.70;2.88;;;;;;;;;;4968314;28;20043;-88
2022/04/08 17:45:03;;;;;;;11.85;5.70;;;;;;;;;;4970663;28;20582;-86
2022/04/08 17:47:30;;;;;;;8.35;2.47;;;;;;;;;;4966772;28;20482;-85
2022/04/08 17:49:57;;;;;;;7.22;1.70;;;;;;;;;;4959927;28;20078;-85
2022/04/08 17:52:24;;;;;;;8.10;1.67;;;;;;;;;;4967237;28;20039;-87
2022/04/08 17:54:54;;;;;;;5.10;1.42;;;;;;;;;;4967979;28;20571;-84
2022/04/08 17:57:21;;;;;;;6.22;1.42;;;;;;;;;;4966219;28;20143;-83
2022/04/08 17:59:48;;;;;;;7.82;1.73;;;;;;;;;;4966853;28;20059;-85
2022/04/08 18:02:19;;;;;;;4.80;1.17;;;;;;;;;;4967084;28;20511;-86
2022/04/08 18:04:52;;;;;;;9.75;1.63;;;;;;;;;;4967791;28;20148;-89
2022/04/08 18:07:19;;;;;;;9.63;1.88;;;;;;;;;;4965464;28;20047;-86
2022/04/08 18:09:45;;;;;;;7.20;1.80;;;;;;;;;;4969704;28;20046;-92
2022/04/08 18:12:12;;;;;;;8.35;1.98;;;;;;;;;;4957900;28;20703;-88
2022/04/08 18:14:39;;;;;;;7.85;1.48;;;;;;;;;;4955526;28;20160;-85
2022/04/08 18:17:06;;;;;;;9.20;1.50;;;;;;;;;;4968440;28;20467;-85
2022/04/08 18:19:33;;;;;;;8.27;1.88;;;;;;;;;;4967666;28;20418;-85
2022/04/08 18:22:00;;;;;;;7.07;1.48;;;;;;;;;;4967081;28;20482;-85
2022/04/08 18:24:28;;;;;;;14.98;4.28;;;;;;;;;;4966370;28;20058;-86
2022/04/08 18:26:54;;;;;;;9.38;2.88;;;;;;;;;;4966925;28;20137;-86
2022/04/08 18:29:21;;;;;;;10.55;2.58;;;;;;;;;;4966208;28;20066;-85
2022/04/08 18:32:08;;;;;;;13.93;3.03;;;;;;;;;;4961878;28;20591;-88
2022/04/08 18:34:41;;;;;;;7.35;2.03;;;;;;;;;;4963099;28;20062;-91
2022/04/08 18:37:09;;;;;;;13.27;2.38;;;;;;;;;;4962919;28;20066;-88
2022/04/08 18:39:37;;;;;;;12.15;2.72;;;;;;;;;;4961605;28;20050;-89
2022/04/08 18:42:07;;;;;;;7.70;3.65;;;;;;;;;;4963655;28;20621;-90
2022/04/08 18:44:38;;;;;;;11.80;4.60;;;;;;;;;;4966984;28;20051;-90
2022/04/08 18:47:06;;;;;;;10.73;3.88;;;;;;;;;;4964933;28;20094;-89
2022/04/08 18:49:33;;;;;;;7.47;1.50;;;;;;;;;;4966940;28;20142;-91
2022/04/08 18:52:00;;;;;;;7.80;2.80;;;;;;;;;;4966360;28;20097;-91
2022/04/08 18:54:27;;;;;;;10.85;2.90;;;;;;;;;;4965544;28;20054;-92
2022/04/08 18:56:54;;;;;;;9.60;1.92;;;;;;;;;;4960523;28;20801;-92
2022/04/08 18:59:21;;;;;;;9.65;1.92;;;;;;;;;;4968351;28;20567;-91
2022/04/08 19:01:47;;;;;;;12.48;3.50;;;;;;;;;;4969080;28;20481;-92
2022/04/08 19:04:15;;;;;;;15.65;5.72;;;;;;;;;;4959303;28;20054;-93
2022/04/08 19:06:41;;;;;;;16.33;8.77;;;;;;;;;;4970028;28;20092;-93